createdAt,value
2023-01-10T00:04:14.646Z,96524.31
2023-01-10T00:09:18.521Z,96557.50
2023-01-10T00:14:22.011Z,96650.78
2023-01-10T00:19:25.828Z,96665.38
2023-01-10T00:24:29.215Z,96624.69
2023-01-10T00:29:32.600Z,96608.06
2023-01-10T00:34:36.307Z,96593.22
2023-01-10T00:39:39.776Z,96660.81
2023-01-10T00:44:43.054Z,96687.16
2023-01-10T00:49:46.872Z,96694.63
2023-01-10T00:54:50.154Z,96671.47
2023-01-10T00:59:53.678Z,96634.16
2023-01-10T01:04:57.076Z,96522.25
2023-01-10T01:10:26.309Z,96520.72
2023-01-10T01:15:29.754Z,96647.53
2023-01-10T01:20:33.747Z,96746.25
2023-01-10T01:25:37.204Z,96752.16
2023-01-10T01:30:41.050Z,96653.06
2023-01-10T01:35:49.482Z,96726.78
2023-01-10T01:40:52.847Z,96691.16
2023-01-10T01:45:58.986Z,96775.69
2023-01-10T01:51:12.721Z,96730.06
2023-01-10T01:56:46.822Z,96756.03
2023-01-10T02:01:55.439Z,96742.22
2023-01-10T02:07:00.303Z,96723.69
2023-01-10T02:12:04.461Z,96791.13
2023-01-10T02:17:10.787Z,96731.88
2023-01-10T02:22:46.318Z,96631.03
2023-01-10T02:28:07.029Z,96784.69
2023-01-10T02:33:23.640Z,96654.75
2023-01-10T02:38:58.103Z,96797.22
2023-01-10T02:44:09.912Z,96733.75
2023-01-10T02:49:13.435Z,96731.88
2023-01-10T02:54:23.049Z,96813.72
2023-01-10T02:59:48.505Z,96826.88
2023-01-10T03:05:04.920Z,96841.91
2023-01-10T03:10:31.468Z,96842.53
2023-01-10T03:15:37.942Z,96752.75
2023-01-10T03:20:45.682Z,96838.84
2023-01-10T03:25:50.386Z,96880.97
2023-01-10T03:31:00.011Z,96801.66
2023-01-10T03:36:19.920Z,96862.22
2023-01-10T03:41:54.639Z,96900.28
2023-01-10T03:47:06.002Z,96857.00
2023-01-10T03:52:12.845Z,96858.34
2023-01-10T03:57:22.366Z,96906.66
2023-01-10T04:02:30.486Z,96745.03
2023-01-10T04:07:34.004Z,96945.78
2023-01-10T04:12:37.326Z,96878.28
2023-01-10T04:17:40.724Z,96755.03
2023-01-10T04:22:46.514Z,96960.19
2023-01-10T04:27:53.483Z,96828.72
2023-01-10T04:32:57.069Z,96972.09
2023-01-10T04:38:00.799Z,96929.97
2023-01-10T04:43:04.081Z,96923.56
2023-01-10T04:48:18.195Z,96976.31
2023-01-10T04:53:22.529Z,97004.22
2023-01-10T04:58:25.885Z,96896.47
2023-01-10T05:03:29.293Z,96888.59
2023-01-10T05:08:32.684Z,97027.94
2023-01-10T05:13:36.032Z,96881.38
2023-01-10T05:18:39.583Z,97000.59
2023-01-10T05:23:43.056Z,97006.47
2023-01-10T05:28:50.234Z,97021.66
2023-01-10T05:33:53.518Z,97085.00
2023-01-10T05:38:58.043Z,97057.91
2023-01-10T05:44:09.171Z,97081.19
2023-01-10T05:49:12.652Z,97048.59
2023-01-10T05:54:26.290Z,97102.78
2023-01-10T05:59:30.085Z,97101.72
2023-01-10T06:04:33.391Z,97115.19
2023-01-10T06:09:42.137Z,97010.03
2023-01-10T06:14:46.192Z,97134.34
2023-01-10T06:19:49.684Z,97090.72
2023-01-10T06:24:53.048Z,97111.44
2023-01-10T06:29:56.370Z,97112.59
2023-01-10T06:34:59.771Z,97081.91
2023-01-10T06:40:04.048Z,97160.81
2023-01-10T06:45:08.355Z,97069.84
2023-01-10T06:50:13.257Z,97187.53
2023-01-10T06:55:16.888Z,97155.03
2023-01-10T07:00:23.086Z,97178.00
2023-01-10T07:05:26.946Z,97197.06
2023-01-10T07:10:30.544Z,97156.59
2023-01-10T07:15:33.940Z,97165.47
2023-01-10T07:20:37.255Z,97189.75
2023-01-10T07:25:40.556Z,97191.41
2023-01-10T07:30:44.013Z,97206.78
2023-01-10T07:35:47.397Z,97192.75
2023-01-10T07:40:50.845Z,97249.31
2023-01-10T07:45:54.284Z,97202.00
2023-01-10T07:50:59.565Z,97140.47
2023-01-10T07:56:04.877Z,97245.53
2023-01-10T08:01:08.822Z,97286.22
2023-01-10T08:06:12.245Z,97295.75
2023-01-10T08:11:15.735Z,97196.00
2023-01-10T08:16:21.579Z,97199.44
2023-01-10T08:21:25.251Z,97306.56
2023-01-10T08:26:28.538Z,97352.53
2023-01-10T08:31:31.923Z,97194.94
2023-01-10T08:36:35.343Z,97348.09
2023-01-10T08:41:42.041Z,97278.00
2023-01-10T08:46:45.655Z,97375.63
2023-01-10T08:52:00.143Z,97351.19
2023-01-10T08:57:03.383Z,97258.63
2023-01-10T09:02:09.410Z,97376.09
2023-01-10T09:07:12.882Z,97352.19
2023-01-10T09:12:34.615Z,97389.28
2023-01-10T09:17:38.026Z,97426.69
2023-01-10T09:22:42.410Z,97385.03
2023-01-10T09:27:46.249Z,97442.63
2023-01-10T09:32:54.686Z,97467.44
2023-01-10T09:38:01.840Z,97473.38
2023-01-10T09:43:24.519Z,97484.28
2023-01-10T09:48:42.036Z,97486.19
2023-01-10T09:53:46.690Z,97487.44
2023-01-10T09:58:51.085Z,97473.81
2023-01-10T10:04:03.797Z,97422.97
2023-01-10T10:09:22.833Z,97420.31
2023-01-10T10:14:55.094Z,97465.56
2023-01-10T10:20:15.327Z,97456.34
2023-01-10T10:25:21.787Z,97454.25
2023-01-10T10:30:44.276Z,97454.09
2023-01-10T10:36:03.676Z,97448.75
2023-01-10T10:41:36.512Z,97377.66
2023-01-10T10:46:40.467Z,97362.09
2023-01-10T10:51:51.557Z,97370.00
2023-01-10T10:56:56.951Z,97279.81
2023-01-10T11:02:01.683Z,97330.56
2023-01-10T11:07:05.259Z,97380.19
2023-01-10T11:12:15.650Z,97453.72
2023-01-10T11:17:26.918Z,97454.50
2023-01-10T11:22:56.257Z,97425.31
2023-01-10T11:28:17.595Z,97435.00
2023-01-10T11:33:24.281Z,97445.00
2023-01-10T11:38:31.982Z,97416.41
2023-01-10T11:43:36.577Z,97435.00
2023-01-10T11:49:08.170Z,97434.28
2023-01-10T11:54:25.340Z,97354.16
2023-01-10T11:59:29.925Z,97423.84
2023-01-10T12:04:40.480Z,97401.53
2023-01-10T12:09:48.798Z,97343.75
2023-01-10T12:14:54.406Z,97301.75
2023-01-10T12:20:01.396Z,97358.84
2023-01-10T12:25:16.227Z,97455.31
2023-01-10T12:30:36.923Z,97460.19
2023-01-10T12:35:44.984Z,97458.41
2023-01-10T12:40:54.133Z,97461.25
2023-01-10T12:46:38.240Z,97318.06
2023-01-10T12:51:46.693Z,97391.34
2023-01-10T12:56:50.715Z,97238.91
2023-01-10T13:01:57.512Z,97454.88
2023-01-10T13:07:02.254Z,97411.22
2023-01-10T13:12:17.978Z,97454.09
2023-01-10T13:17:34.626Z,97493.88
2023-01-10T13:23:15.960Z,97501.13
2023-01-10T13:28:23.472Z,97512.16
2023-01-10T13:33:41.043Z,97491.84
2023-01-10T13:39:02.838Z,97441.38
2023-01-10T13:44:09.282Z,97529.84
2023-01-10T13:49:41.483Z,97240.47
2023-01-10T13:54:58.278Z,97535.66
2023-01-10T14:00:21.621Z,97322.25
2023-01-10T14:05:25.203Z,97456.22
2023-01-10T14:10:38.878Z,97519.25
2023-01-10T14:15:46.673Z,97555.88
2023-01-10T14:21:05.406Z,97576.66
2023-01-10T14:26:16.528Z,97576.13
2023-01-10T14:31:23.888Z,97343.13
2023-01-10T14:36:32.371Z,97551.03
2023-01-10T14:41:40.726Z,97580.06
2023-01-10T14:46:51.624Z,97602.47
2023-01-10T14:52:22.695Z,97573.56
2023-01-10T14:57:26.382Z,97573.91
2023-01-10T15:02:30.407Z,97632.16
2023-01-10T15:07:34.105Z,97630.41
2023-01-10T15:12:38.377Z,97543.88
2023-01-10T15:17:43.913Z,97610.97
2023-01-10T15:22:56.602Z,97626.88
2023-01-10T15:28:00.794Z,97579.03
2023-01-10T15:33:08.514Z,97700.72
2023-01-10T15:38:17.917Z,97689.63
2023-01-10T15:43:33.041Z,97692.91
2023-01-10T15:49:01.299Z,97744.06
2023-01-10T15:54:20.016Z,97753.75
2023-01-10T15:59:29.499Z,97758.28
2023-01-10T16:04:39.582Z,97792.22
2023-01-10T16:09:58.618Z,97778.75
2023-01-10T16:15:01.947Z,97721.91
2023-01-10T16:20:05.767Z,97736.78
2023-01-10T16:25:15.033Z,97704.34
2023-01-10T16:30:32.315Z,97844.72
2023-01-10T16:35:36.021Z,97807.13
2023-01-10T16:40:40.590Z,97802.44
2023-01-10T16:45:44.063Z,97818.66
2023-01-10T16:50:48.827Z,97838.13
2023-01-10T16:55:53.636Z,97817.28
2023-01-10T17:00:59.721Z,97808.03
2023-01-10T17:06:03.054Z,97798.88
2023-01-10T17:11:11.500Z,97769.69
2023-01-10T17:16:24.827Z,97765.50
2023-01-10T17:21:28.437Z,97810.19
2023-01-10T17:26:31.685Z,97860.88
2023-01-10T17:31:35.073Z,97876.41
2023-01-10T17:36:40.743Z,97828.63
2023-01-10T17:41:45.369Z,97859.59
2023-01-10T17:46:48.625Z,97699.84
2023-01-10T17:51:54.429Z,97851.38
2023-01-10T17:56:57.762Z,97857.13
2023-01-10T18:02:03.678Z,97832.84
2023-01-10T18:07:07.898Z,97904.56
2023-01-10T18:12:11.201Z,97913.69
2023-01-10T18:17:14.551Z,97674.16
2023-01-10T18:22:36.550Z,97754.16
2023-01-10T18:27:40.099Z,97909.31
2023-01-10T18:32:52.094Z,97893.75
2023-01-10T18:37:56.766Z,97895.94
2023-01-10T18:43:00.276Z,97926.69
2023-01-10T18:48:06.186Z,97978.44
2023-01-10T18:53:19.985Z,97973.25
2023-01-10T18:58:29.016Z,97973.91
2023-01-10T19:03:33.572Z,97826.63
2023-01-10T19:08:39.002Z,97905.63
2023-01-10T19:13:43.002Z,97940.13
2023-01-10T19:18:51.482Z,97902.72
2023-01-10T19:23:56.679Z,97959.66
2023-01-10T19:29:00.897Z,97887.81
2023-01-10T19:34:04.258Z,97958.00
2023-01-10T19:39:08.470Z,97811.00
2023-01-10T19:44:15.001Z,97933.38
2023-01-10T19:49:20.351Z,97960.97
2023-01-10T19:54:25.077Z,97972.13
2023-01-10T19:59:29.348Z,97981.94
2023-01-10T20:04:33.174Z,97964.53
2023-01-10T20:09:36.525Z,97771.22
2023-01-10T20:14:40.204Z,97704.81
2023-01-10T20:19:43.869Z,97782.19
2023-01-10T20:24:47.541Z,97712.72
2023-01-10T20:29:51.183Z,97966.03
2023-01-10T20:34:55.373Z,97906.13
2023-01-10T20:39:59.486Z,97958.38
2023-01-10T20:45:03.314Z,97984.38
2023-01-10T20:50:07.934Z,97921.09
2023-01-10T20:55:11.960Z,97999.13
2023-01-10T21:00:16.536Z,97957.44
2023-01-10T21:05:20.222Z,97957.38
2023-01-10T21:10:23.817Z,97843.03
2023-01-10T21:15:27.262Z,97894.31
2023-01-10T21:20:31.067Z,97719.03
2023-01-10T21:25:34.679Z,98018.34
2023-01-10T21:30:38.761Z,97957.63
2023-01-10T21:35:42.192Z,98014.94
2023-01-10T21:40:45.753Z,97728.59
2023-01-10T21:45:49.605Z,97986.41
2023-01-10T21:50:53.858Z,97881.31
2023-01-10T21:56:00.673Z,98041.16
2023-01-10T22:01:15.287Z,97983.81
2023-01-10T22:06:18.794Z,97851.81
2023-01-10T22:11:22.350Z,97771.13
2023-01-10T22:16:26.696Z,97931.69
2023-01-10T22:21:40.245Z,97906.50
2023-01-10T22:26:43.801Z,98028.97
2023-01-10T22:31:47.570Z,98024.66
2023-01-10T22:36:50.882Z,98049.84
2023-01-10T22:41:54.397Z,97948.16
2023-01-10T22:46:57.668Z,98010.69
2023-01-10T22:52:01.605Z,98011.50
2023-01-10T22:57:05.129Z,97950.69
2023-01-10T23:02:08.764Z,98007.97
2023-01-10T23:07:13.919Z,98016.56
2023-01-10T23:12:17.861Z,98022.63
2023-01-10T23:17:21.171Z,98017.44
2023-01-10T23:22:26.625Z,97889.88
2023-01-10T23:27:30.054Z,98022.72
2023-01-10T23:32:33.547Z,98032.41
2023-01-10T23:37:37.092Z,98002.88
2023-01-10T23:42:40.704Z,97761.56
2023-01-10T23:47:44.225Z,98006.34
2023-01-10T23:52:47.710Z,98028.06
2023-01-10T23:57:51.046Z,97930.81
